sensor_id;sensor_type;location;lat;lon;timestamp;pressure;altitude;pressure_sealevel;temperature;humidity
45255;BME280;30989;52.078;21.014;2024-03-08T00:01:09;163325.56;;;-1.62;100.00
45255;BME280;30989;52.078;21.014;2024-03-08T00:03:35;163309.63;;;-1.68;100.00
45255;BME280;30989;52.078;21.014;2024-03-08T00:06:01;163324.22;;;-1.63;100.00
45255;BME280;30989;52.078;21.014;2024-03-08T00:08:27;163295.00;;;-1.74;100.00
45255;BME280;30989;52.078;21.014;2024-03-08T00:10:53;163318.91;;;-1.65;100.00
45255;BME280;30989;52.078;21.014;2024-03-08T00:13:18;163302.97;;;-1.71;100.00
45255;BME280;30989;52.078;21.014;2024-03-08T00:15:43;163289.69;;;-1.76;100.00
45255;BME280;30989;52.078;21.014;2024-03-08T00:18:09;163279.06;;;-1.80;100.00
45255;BME280;30989;52.078;21.014;2024-03-08T00:20:35;163255.19;;;-1.89;100.00
45255;BME280;30989;52.078;21.014;2024-03-08T00:23:01;163263.13;;;-1.86;100.00
45255;BME280;30989;52.078;21.014;2024-03-08T00:25:26;163257.81;;;-1.88;100.00
45255;BME280;30989;52.078;21.014;2024-03-08T00:27:51;163248.53;;;-1.91;100.00
45255;BME280;30989;52.078;21.014;2024-03-08T00:30:22;163248.53;;;-1.91;100.00
45255;BME280;30989;52.078;21.014;2024-03-08T00:32:48;163247.22;;;-1.92;100.00
45255;BME280;30989;52.078;21.014;2024-03-08T00:35:14;163248.53;;;-1.91;100.00
45255;BME280;30989;52.078;21.014;2024-03-08T00:37:40;163249.88;;;-1.91;100.00
45255;BME280;30989;52.078;21.014;2024-03-08T00:40:07;163252.53;;;-1.90;100.00
45255;BME280;30989;52.078;21.014;2024-03-08T00:42:34;163249.88;;;-1.91;100.00
45255;BME280;30989;52.078;21.014;2024-03-08T00:44:59;163248.53;;;-1.91;100.00
45255;BME280;30989;52.078;21.014;2024-03-08T00:47:25;163247.22;;;-1.92;100.00
45255;BME280;30989;52.078;21.014;2024-03-08T00:49:51;163249.88;;;-1.91;100.00
45255;BME280;30989;52.078;21.014;2024-03-08T00:52:16;163239.25;;;-1.95;100.00
45255;BME280;30989;52.078;21.014;2024-03-08T00:54:43;163223.31;;;-2.01;100.00
45255;BME280;30989;52.078;21.014;2024-03-08T00:57:09;163220.66;;;-2.02;100.00
45255;BME280;30989;52.078;21.014;2024-03-08T00:59:34;163216.66;;;-2.04;100.00
45255;BME280;30989;52.078;21.014;2024-03-08T01:02:00;163215.34;;;-2.04;100.00
45255;BME280;30989;52.078;21.014;2024-03-08T01:04:27;163200.75;;;-2.10;100.00
45255;BME280;30989;52.078;21.014;2024-03-08T01:06:55;163212.69;;;-2.05;100.00
45255;BME280;30989;52.078;21.014;2024-03-08T01:09:22;163207.38;;;-2.07;100.00
45255;BME280;30989;52.078;21.014;2024-03-08T01:11:48;163204.72;;;-2.08;100.00
45255;BME280;30989;52.078;21.014;2024-03-08T01:14:13;163174.19;;;-2.20;100.00
45255;BME280;30989;52.078;21.014;2024-03-08T01:16:38;163187.47;;;-2.15;100.00
45255;BME280;30989;52.078;21.014;2024-03-08T01:19:04;163178.16;;;-2.18;100.00
45255;BME280;30989;52.078;21.014;2024-03-08T01:21:29;163172.88;;;-2.20;100.00
45255;BME280;30989;52.078;21.014;2024-03-08T01:23:55;163168.88;;;-2.22;100.00
45255;BME280;30989;52.078;21.014;2024-03-08T01:26:20;163154.28;;;-2.28;100.00
45255;BME280;30989;52.078;21.014;2024-03-08T01:28:45;163159.59;;;-2.25;100.00
45255;BME280;30989;52.078;21.014;2024-03-08T01:31:11;163148.97;;;-2.30;100.00
45255;BME280;30989;52.078;21.014;2024-03-08T01:33:37;163131.72;;;-2.36;100.00
45255;BME280;30989;52.078;21.014;2024-03-08T01:36:02;163162.25;;;-2.24;100.00
45255;BME280;30989;52.078;21.014;2024-03-08T01:38:28;163142.34;;;-2.32;100.00
45255;BME280;30989;52.078;21.014;2024-03-08T01:40:54;163152.94;;;-2.28;100.00
45255;BME280;30989;52.078;21.014;2024-03-08T01:43:25;163151.63;;;-2.29;100.00
45255;BME280;30989;52.078;21.014;2024-03-08T01:45:55;163125.06;;;-2.39;100.00
45255;BME280;30989;52.078;21.014;2024-03-08T01:48:22;163130.38;;;-2.37;100.00
45255;BME280;30989;52.078;21.014;2024-03-08T01:50:50;163125.06;;;-2.39;100.00
45255;BME280;30989;52.078;21.014;2024-03-08T01:53:17;163111.81;;;-2.44;100.00
45255;BME280;30989;52.078;21.014;2024-03-08T01:55:45;163125.06;;;-2.39;100.00
45255;BME280;30989;52.078;21.014;2024-03-08T01:58:12;163126.41;;;-2.38;100.00
45255;BME280;30989;52.078;21.014;2024-03-08T02:00:42;163130.38;;;-2.37;100.00
45255;BME280;30989;52.078;21.014;2024-03-08T02:03:09;163117.13;;;-2.42;100.00
45255;BME280;30989;52.078;21.014;2024-03-08T02:05:34;163119.78;;;-2.41;100.00
45255;BME280;30989;52.078;21.014;2024-03-08T02:08:01;163122.41;;;-2.40;100.00
45255;BME280;30989;52.078;21.014;2024-03-08T02:10:28;163118.44;;;-2.41;100.00
45255;BME280;30989;52.078;21.014;2024-03-08T02:12:54;163119.78;;;-2.41;100.00
45255;BME280;30989;52.078;21.014;2024-03-08T02:15:20;163111.81;;;-2.44;100.00
45255;BME280;30989;52.078;21.014;2024-03-08T02:17:46;163103.84;;;-2.47;100.00
45255;BME280;30989;52.078;21.014;2024-03-08T02:20:12;163115.78;;;-2.42;100.00
45255;BME280;30989;52.078;21.014;2024-03-08T02:22:38;163103.84;;;-2.47;100.00
45255;BME280;30989;52.078;21.014;2024-03-08T02:25:04;163103.84;;;-2.47;100.00
45255;BME280;30989;52.078;21.014;2024-03-08T02:27:30;163085.25;;;-2.54;100.00
45255;BME280;30989;52.078;21.014;2024-03-08T02:29:57;163048.09;;;-2.68;100.00
45255;BME280;30989;52.078;21.014;2024-03-08T02:32:25;163016.25;;;-2.80;100.00
45255;BME280;30989;52.078;21.014;2024-03-08T02:34:51;163010.94;;;-2.82;100.00
45255;BME280;30989;52.078;21.014;2024-03-08T02:37:21;163009.63;;;-2.83;100.00
45255;BME280;30989;52.078;21.014;2024-03-08T02:39:46;163000.34;;;-2.86;100.00
45255;BME280;30989;52.078;21.014;2024-03-08T02:42:12;162981.75;;;-2.94;100.00
45255;BME280;30989;52.078;21.014;2024-03-08T02:44:44;162989.72;;;-2.90;100.00
45255;BME280;30989;52.078;21.014;2024-03-08T02:47:09;162999.00;;;-2.87;100.00
45255;BME280;30989;52.078;21.014;2024-03-08T02:49:36;163001.66;;;-2.86;100.00
45255;BME280;30989;52.078;21.014;2024-03-08T02:52:04;162995.03;;;-2.88;100.00
45255;BME280;30989;52.078;21.014;2024-03-08T02:54:30;162997.69;;;-2.87;100.00
45255;BME280;30989;52.078;21.014;2024-03-08T02:56:57;162983.09;;;-2.93;100.00
45255;BME280;30989;52.078;21.014;2024-03-08T02:59:22;162989.72;;;-2.90;100.00
45255;BME280;30989;52.078;21.014;2024-03-08T03:01:48;162984.41;;;-2.93;100.00
45255;BME280;30989;52.078;21.014;2024-03-08T03:04:14;162989.72;;;-2.90;100.00
45255;BME280;30989;52.078;21.014;2024-03-08T03:06:39;162987.06;;;-2.92;100.00
45255;BME280;30989;52.078;21.014;2024-03-08T03:09:05;162972.47;;;-2.97;100.00
45255;BME280;30989;52.078;21.014;2024-03-08T03:11:31;162964.53;;;-3.00;100.00
45255;BME280;30989;52.078;21.014;2024-03-08T03:13:57;162955.22;;;-3.04;100.00
45255;BME280;30989;52.078;21.014;2024-03-08T03:16:22;162941.97;;;-3.09;100.00
45255;BME280;30989;52.078;21.014;2024-03-08T03:18:48;162931.34;;;-3.13;100.00
45255;BME280;30989;52.078;21.014;2024-03-08T03:21:14;162936.66;;;-3.11;100.00
45255;BME280;30989;52.078;21.014;2024-03-08T03:23:40;162927.38;;;-3.14;100.00
45255;BME280;30989;52.078;21.014;2024-03-08T03:26:08;162914.09;;;-3.19;100.00
45255;BME280;30989;52.078;21.014;2024-03-08T03:28:33;162898.19;;;-3.26;100.00
45255;BME280;30989;52.078;21.014;2024-03-08T03:30:59;162892.88;;;-3.28;100.00
45255;BME280;30989;52.078;21.014;2024-03-08T03:33:27;162874.31;;;-3.35;100.00
45255;BME280;30989;52.078;21.014;2024-03-08T03:35:53;162863.72;;;-3.39;100.00
45255;BME280;30989;52.078;21.014;2024-03-08T03:38:18;162865.03;;;-3.38;100.00
45255;BME280;30989;52.078;21.014;2024-03-08T03:40:46;162863.72;;;-3.39;100.00
45255;BME280;30989;52.078;21.014;2024-03-08T03:43:13;162861.06;;;-3.40;100.00
45255;BME280;30989;52.078;21.014;2024-03-08T03:45:39;162851.78;;;-3.43;100.00
45255;BME280;30989;52.078;21.014;2024-03-08T03:48:07;162849.13;;;-3.44;100.00
45255;BME280;30989;52.078;21.014;2024-03-08T03:50:34;162826.56;;;-3.53;100.00
45255;BME280;30989;52.078;21.014;2024-03-08T03:53:00;162834.53;;;-3.50;100.00
45255;BME280;30989;52.078;21.014;2024-03-08T03:55:25;162825.25;;;-3.53;100.00
45255;BME280;30989;52.078;21.014;2024-03-08T03:57:52;162809.34;;;-3.60;100.00
45255;BME280;30989;52.078;21.014;2024-03-08T04:00:18;162823.91;;;-3.54;100.00
45255;BME280;30989;52.078;21.014;2024-03-08T04:02:43;162826.56;;;-3.53;100.00
45255;BME280;30989;52.078;21.014;2024-03-08T04:05:10;162825.25;;;-3.53;100.00
45255;BME280;30989;52.078;21.014;2024-03-08T04:07:37;162806.69;;;-3.61;100.00
45255;BME280;30989;52.078;21.014;2024-03-08T04:10:03;162793.44;;;-3.66;100.00
45255;BME280;30989;52.078;21.014;2024-03-08T04:12:29;162806.69;;;-3.61;100.00
45255;BME280;30989;52.078;21.014;2024-03-08T04:14:55;162812.00;;;-3.59;100.00
45255;BME280;30989;52.078;21.014;2024-03-08T04:17:21;162798.72;;;-3.64;100.00
45255;BME280;30989;52.078;21.014;2024-03-08T04:19:46;162801.38;;;-3.63;100.00
45255;BME280;30989;52.078;21.014;2024-03-08T04:22:13;162790.78;;;-3.67;100.00
45255;BME280;30989;52.078;21.014;2024-03-08T04:24:39;162776.19;;;-3.72;100.00
45255;BME280;30989;52.078;21.014;2024-03-08T04:27:06;162761.59;;;-3.78;100.00
45255;BME280;30989;52.078;21.014;2024-03-08T04:29:31;162773.53;;;-3.73;100.00
45255;BME280;30989;52.078;21.014;2024-03-08T04:31:58;162766.91;;;-3.76;100.00
45255;BME280;30989;52.078;21.014;2024-03-08T04:34:23;162762.94;;;-3.77;100.00
45255;BME280;30989;52.078;21.014;2024-03-08T04:36:49;162748.34;;;-3.83;100.00
45255;BME280;30989;52.078;21.014;2024-03-08T04:39:15;162749.69;;;-3.82;100.00
45255;BME280;30989;52.078;21.014;2024-03-08T04:41:42;162733.75;;;-3.88;100.00
45255;BME280;30989;52.078;21.014;2024-03-08T04:44:09;162728.47;;;-3.91;100.00
45255;BME280;30989;52.078;21.014;2024-03-08T04:46:35;162740.41;;;-3.86;100.00
45255;BME280;30989;52.078;21.014;2024-03-08T04:49:01;162732.44;;;-3.89;100.00
45255;BME280;30989;52.078;21.014;2024-03-08T04:51:26;162709.91;;;-3.98;100.00
45255;BME280;30989;52.078;21.014;2024-03-08T04:53:52;162716.53;;;-3.95;100.00
45255;BME280;30989;52.078;21.014;2024-03-08T04:56:17;162703.28;;;-4.00;100.00
45255;BME280;30989;52.078;21.014;2024-03-08T04:58:45;162684.72;;;-4.07;100.00
45255;BME280;30989;52.078;21.014;2024-03-08T05:01:12;162703.28;;;-4.00;100.00
45255;BME280;30989;52.078;21.014;2024-03-08T05:03:38;162694.00;;;-4.04;100.00
45255;BME280;30989;52.078;21.014;2024-03-08T05:06:04;162697.97;;;-4.02;100.00
45255;BME280;30989;52.078;21.014;2024-03-08T05:08:29;162678.09;;;-4.10;100.00
45255;BME280;30989;52.078;21.014;2024-03-08T05:10:55;162682.06;;;-4.08;100.00
45255;BME280;30989;52.078;21.014;2024-03-08T05:13:21;162695.31;;;-4.03;100.00
45255;BME280;30989;52.078;21.014;2024-03-08T05:15:50;162695.31;;;-4.03;100.00
45255;BME280;30989;52.078;21.014;2024-03-08T05:18:18;162691.34;;;-4.05;100.00
45255;BME280;30989;52.078;21.014;2024-03-08T05:20:43;162690.03;;;-4.05;100.00
45255;BME280;30989;52.078;21.014;2024-03-08T05:23:09;162691.34;;;-4.05;100.00
45255;BME280;30989;52.078;21.014;2024-03-08T05:25:34;162701.94;;;-4.01;100.00
45255;BME280;30989;52.078;21.014;2024-03-08T05:28:00;162703.28;;;-4.00;100.00
45255;BME280;30989;52.078;21.014;2024-03-08T05:30:25;162703.28;;;-4.00;100.00
45255;BME280;30989;52.078;21.014;2024-03-08T05:32:51;162723.16;;;-3.93;100.00
45255;BME280;30989;52.078;21.014;2024-03-08T05:35:16;162711.22;;;-3.97;100.00
45255;BME280;30989;52.078;21.014;2024-03-08T05:37:42;162735.09;;;-3.88;100.00
45255;BME280;30989;52.078;21.014;2024-03-08T05:40:08;162753.66;;;-3.81;100.00
45255;BME280;30989;52.078;21.014;2024-03-08T05:42:36;162764.25;;;-3.77;100.00
45255;BME280;30989;52.078;21.014;2024-03-08T05:45:03;162772.22;;;-3.74;100.00
45255;BME280;30989;52.078;21.014;2024-03-08T05:47:29;162776.19;;;-3.72;100.00
45255;BME280;30989;52.078;21.014;2024-03-08T05:49:54;162778.84;;;-3.71;100.00
45255;BME280;30989;52.078;21.014;2024-03-08T05:52:20;162801.38;;;-3.63;100.00
45255;BME280;30989;52.078;21.014;2024-03-08T05:54:45;162812.00;;;-3.59;100.00
45255;BME280;30989;52.078;21.014;2024-03-08T05:57:12;162813.31;;;-3.58;100.00
45255;BME280;30989;52.078;21.014;2024-03-08T05:59:39;162819.94;;;-3.55;100.00
45255;BME280;30989;52.078;21.014;2024-03-08T06:02:05;162830.56;;;-3.51;100.00
45255;BME280;30989;52.078;21.014;2024-03-08T06:04:30;162849.13;;;-3.44;100.00
45255;BME280;30989;52.078;21.014;2024-03-08T06:06:56;162873.00;;;-3.35;100.00
45255;BME280;30989;52.078;21.014;2024-03-08T06:09:24;162878.31;;;-3.33;100.00
45255;BME280;30989;52.078;21.014;2024-03-08T06:11:50;162891.56;;;-3.28;100.00
45255;BME280;30989;52.078;21.014;2024-03-08T06:14:16;162910.13;;;-3.21;100.00
45255;BME280;30989;52.078;21.014;2024-03-08T06:16:46;162923.41;;;-3.16;100.00
45255;BME280;30989;52.078;21.014;2024-03-08T06:19:12;162939.31;;;-3.10;100.00
45255;BME280;30989;52.078;21.014;2024-03-08T06:21:38;162955.22;;;-3.04;100.00
45255;BME280;30989;52.078;21.014;2024-03-08T06:24:04;162980.44;;;-2.94;100.00
45255;BME280;30989;52.078;21.014;2024-03-08T06:26:29;163003.00;;;-2.85;100.00
45255;BME280;30989;52.078;21.014;2024-03-08T06:28:55;163021.56;;;-2.78;100.00
45255;BME280;30989;52.078;21.014;2024-03-08T06:31:21;163044.13;;;-2.70;100.00
45255;BME280;30989;52.078;21.014;2024-03-08T06:33:47;163069.34;;;-2.60;100.00
45255;BME280;30989;52.078;21.014;2024-03-08T06:36:18;163079.97;;;-2.56;100.00
45255;BME280;30989;52.078;21.014;2024-03-08T06:38:48;163102.50;;;-2.47;100.00
45255;BME280;30989;52.078;21.014;2024-03-08T06:41:13;163146.31;;;-2.31;100.00
45255;BME280;30989;52.078;21.014;2024-03-08T06:43:45;163147.63;;;-2.30;100.00
45255;BME280;30989;52.078;21.014;2024-03-08T06:46:10;163196.75;;;-2.11;100.00
45255;BME280;30989;52.078;21.014;2024-03-08T06:48:39;163227.28;;;-2.00;100.00
45255;BME280;30989;52.078;21.014;2024-03-08T06:51:05;163249.88;;;-1.91;100.00
45255;BME280;30989;52.078;21.014;2024-03-08T06:53:30;163289.69;;;-1.76;100.00
45255;BME280;30989;52.078;21.014;2024-03-08T06:55:57;163308.28;;;-1.69;100.00
45255;BME280;30989;52.078;21.014;2024-03-08T06:58:22;163348.13;;;-1.53;100.00
45255;BME280;30989;52.078;21.014;2024-03-08T07:00:48;163385.31;;;-1.39;100.00
45255;BME280;30989;52.078;21.014;2024-03-08T07:03:17;163406.56;;;-1.31;100.00
45255;BME280;30989;52.078;21.014;2024-03-08T07:05:43;163449.09;;;-1.15;100.00
45255;BME280;30989;52.078;21.014;2024-03-08T07:08:08;163471.66;;;-1.06;100.00
45255;BME280;30989;52.078;21.014;2024-03-08T07:10:34;163500.91;;;-0.95;100.00
45255;BME280;30989;52.078;21.014;2024-03-08T07:13:00;163554.03;;;-0.75;100.00
45255;BME280;30989;52.078;21.014;2024-03-08T07:15:27;163587.28;;;-0.62;100.00
45255;BME280;30989;52.078;21.014;2024-03-08T07:17:54;163620.50;;;-0.49;100.00
45255;BME280;30989;52.078;21.014;2024-03-08T07:20:19;163661.72;;;-0.34;100.00
45255;BME280;30989;52.078;21.014;2024-03-08T07:22:46;163686.97;;;-0.24;100.00
45255;BME280;30989;52.078;21.014;2024-03-08T07:25:18;163725.53;;;-0.09;100.00
45255;BME280;30989;52.078;21.014;2024-03-08T07:27:48;163766.78;;;0.07;100.00
45255;BME280;30989;52.078;21.014;2024-03-08T07:30:14;163796.03;;;0.18;100.00
45255;BME280;30989;52.078;21.014;2024-03-08T07:32:59;163823.97;;;0.28;100.00
45255;BME280;30989;52.078;21.014;2024-03-08T07:35:25;163863.88;;;0.44;100.00
45255;BME280;30989;52.078;21.014;2024-03-08T07:37:51;163895.78;;;0.56;100.00
45255;BME280;30989;52.078;21.014;2024-03-08T07:40:16;163935.69;;;0.71;100.00
45255;BME280;30989;52.078;21.014;2024-03-08T07:42:43;163975.59;;;0.86;100.00
45255;BME280;30989;52.078;21.014;2024-03-08T07:45:09;164014.19;;;1.01;100.00
45255;BME280;30989;52.078;21.014;2024-03-08T07:47:35;164052.78;;;1.16;100.00
45255;BME280;30989;52.078;21.014;2024-03-08T07:50:02;164090.03;;;1.30;100.00
45255;BME280;30989;52.078;21.014;2024-03-08T07:52:27;164127.31;;;1.44;100.00
45255;BME280;30989;52.078;21.014;2024-03-08T07:54:53;164155.28;;;1.55;100.00
45255;BME280;30989;52.078;21.014;2024-03-08T07:57:19;164191.22;;;1.69;100.00
45255;BME280;30989;52.078;21.014;2024-03-08T07:59:45;164220.50;;;1.80;100.00
45255;BME280;30989;52.078;21.014;2024-03-08T08:02:11;164237.81;;;1.86;100.00
45255;BME280;30989;52.078;21.014;2024-03-08T08:04:36;164292.41;;;2.07;100.00
45255;BME280;30989;52.078;21.014;2024-03-08T08:07:04;164316.38;;;2.16;100.00
45255;BME280;30989;52.078;21.014;2024-03-08T08:09:29;164365.66;;;2.35;100.00
45255;BME280;30989;52.078;21.014;2024-03-08T08:12:00;164398.94;;;2.48;100.00
45255;BME280;30989;52.078;21.014;2024-03-08T08:14:27;164398.94;;;2.48;100.00
45255;BME280;30989;52.078;21.014;2024-03-08T08:16:54;164416.28;;;2.54;100.00
45255;BME280;30989;52.078;21.014;2024-03-08T08:19:21;164450.91;;;2.68;100.00
45255;BME280;30989;52.078;21.014;2024-03-08T08:21:46;164476.22;;;2.77;100.00
45255;BME280;30989;52.078;21.014;2024-03-08T08:24:12;164489.53;;;2.82;100.00
45255;BME280;30989;52.078;21.014;2024-03-08T08:26:37;164508.19;;;2.89;100.00
45255;BME280;30989;52.078;21.014;2024-03-08T08:29:03;164524.19;;;2.96;100.00
45255;BME280;30989;52.078;21.014;2024-03-08T08:31:28;164550.84;;;3.06;100.00
45255;BME280;30989;52.078;21.014;2024-03-08T08:33:54;164556.16;;;3.08;100.00
45255;BME280;30989;52.078;21.014;2024-03-08T08:36:26;164574.81;;;3.15;100.00
45255;BME280;30989;52.078;21.014;2024-03-08T08:38:51;164601.47;;;3.25;100.00
45255;BME280;30989;52.078;21.014;2024-03-08T08:41:20;164633.47;;;3.37;100.00
45255;BME280;30989;52.078;21.014;2024-03-08T08:43:47;164650.78;;;3.44;100.00
45255;BME280;30989;52.078;21.014;2024-03-08T08:46:17;164681.44;;;3.55;100.00
45255;BME280;30989;52.078;21.014;2024-03-08T08:48:43;164713.44;;;3.68;100.00
45255;BME280;30989;52.078;21.014;2024-03-08T08:51:11;164730.78;;;3.74;98.43
45255;BME280;30989;52.078;21.014;2024-03-08T08:53:42;164737.44;;;3.77;100.00
45255;BME280;30989;52.078;21.014;2024-03-08T08:56:08;164713.44;;;3.68;99.56
45255;BME280;30989;52.078;21.014;2024-03-08T08:58:34;164756.09;;;3.84;100.00
45255;BME280;30989;52.078;21.014;2024-03-08T09:01:00;164798.78;;;4.00;99.94
45255;BME280;30989;52.078;21.014;2024-03-08T09:03:27;164841.44;;;4.16;100.00
45255;BME280;30989;52.078;21.014;2024-03-08T09:05:53;164878.78;;;4.31;100.00
45255;BME280;30989;52.078;21.014;2024-03-08T09:08:18;164914.81;;;4.44;99.13
45255;BME280;30989;52.078;21.014;2024-03-08T09:10:45;164948.16;;;4.57;97.99
45255;BME280;30989;52.078;21.014;2024-03-08T09:13:10;164966.84;;;4.64;97.83
45255;BME280;30989;52.078;21.014;2024-03-08T09:15:38;164998.84;;;4.76;97.25
45255;BME280;30989;52.078;21.014;2024-03-08T09:18:06;165040.22;;;4.92;96.60
45255;BME280;30989;52.078;21.014;2024-03-08T09:20:31;165082.91;;;5.08;96.35
45255;BME280;30989;52.078;21.014;2024-03-08T09:22:57;165121.66;;;5.23;94.93
45255;BME280;30989;52.078;21.014;2024-03-08T09:25:23;165140.34;;;5.30;92.94
45255;BME280;30989;52.078;21.014;2024-03-08T09:27:48;165169.72;;;5.41;92.53
45255;BME280;30989;52.078;21.014;2024-03-08T09:30:15;165171.06;;;5.42;89.92
45255;BME280;30989;52.078;21.014;2024-03-08T09:32:40;165175.06;;;5.43;90.74
45255;BME280;30989;52.078;21.014;2024-03-08T09:35:07;165176.38;;;5.44;88.80
45255;BME280;30989;52.078;21.014;2024-03-08T09:37:33;165175.06;;;5.43;89.41
45255;BME280;30989;52.078;21.014;2024-03-08T09:39:59;165208.44;;;5.56;86.62
45255;BME280;30989;52.078;21.014;2024-03-08T09:42:26;165203.09;;;5.54;86.49
45255;BME280;30989;52.078;21.014;2024-03-08T09:44:51;165228.44;;;5.64;86.98
45255;BME280;30989;52.078;21.014;2024-03-08T09:47:17;165216.44;;;5.59;84.39
45255;BME280;30989;52.078;21.014;2024-03-08T09:49:43;165216.44;;;5.59;84.28
45255;BME280;30989;52.078;21.014;2024-03-08T09:52:12;165235.13;;;5.66;83.17
45255;BME280;30989;52.078;21.014;2024-03-08T09:54:37;165239.13;;;5.68;81.36
45255;BME280;30989;52.078;21.014;2024-03-08T09:57:06;165244.47;;;5.70;81.84
45255;BME280;30989;52.078;21.014;2024-03-08T09:59:37;165271.19;;;5.80;81.82
45255;BME280;30989;52.078;21.014;2024-03-08T10:02:02;165281.84;;;5.84;82.70
45255;BME280;30989;52.078;21.014;2024-03-08T10:04:31;165327.31;;;6.01;82.94
45255;BME280;30989;52.078;21.014;2024-03-08T10:07:01;165364.69;;;6.16;78.45
45255;BME280;30989;52.078;21.014;2024-03-08T10:09:26;165395.41;;;6.27;80.13
45255;BME280;30989;52.078;21.014;2024-03-08T10:11:57;165422.13;;;6.37;78.33
45255;BME280;30989;52.078;21.014;2024-03-08T10:14:25;165462.19;;;6.53;78.98
45255;BME280;30989;52.078;21.014;2024-03-08T10:16:54;165467.53;;;6.55;75.60
45255;BME280;30989;52.078;21.014;2024-03-08T10:19:20;165498.25;;;6.66;73.57
45255;BME280;30989;52.078;21.014;2024-03-08T10:21:49;165534.34;;;6.80;73.16
45255;BME280;30989;52.078;21.014;2024-03-08T10:24:15;165581.09;;;6.98;73.24
45255;BME280;30989;52.078;21.014;2024-03-08T10:26:40;165615.84;;;7.11;69.33
45255;BME280;30989;52.078;21.014;2024-03-08T10:29:08;165626.53;;;7.15;68.82
45255;BME280;30989;52.078;21.014;2024-03-08T10:31:34;165649.25;;;7.24;71.50
45255;BME280;30989;52.078;21.014;2024-03-08T10:33:59;165722.75;;;7.52;71.61
45255;BME280;30989;52.078;21.014;2024-03-08T10:36:26;165824.38;;;7.90;70.11
45255;BME280;30989;52.078;21.014;2024-03-08T10:38:53;165885.88;;;8.14;69.63
45255;BME280;30989;52.078;21.014;2024-03-08T10:41:19;165920.63;;;8.27;68.92
45255;BME280;30989;52.078;21.014;2024-03-08T10:43:57;165987.56;;;8.52;66.00
45255;BME280;30989;52.078;21.014;2024-03-08T10:49:37;166106.63;;;8.97;67.24
45255;BME280;30989;52.078;21.014;2024-03-08T10:52:04;166149.44;;;9.14;65.18
45255;BME280;30989;52.078;21.014;2024-03-08T10:54:31;166194.94;;;9.31;65.00
45255;BME280;30989;52.078;21.014;2024-03-08T10:56:59;166219.03;;;9.40;59.73
45255;BME280;30989;52.078;21.014;2024-03-08T10:59:26;166249.81;;;9.52;62.61
45255;BME280;30989;52.078;21.014;2024-03-08T11:01:53;166355.56;;;9.92;61.86
45255;BME280;30989;52.078;21.014;2024-03-08T11:04:19;166465.41;;;10.33;58.88
45255;BME280;30989;52.078;21.014;2024-03-08T11:06:48;166584.66;;;10.79;60.62
45255;BME280;30989;52.078;21.014;2024-03-08T11:09:33;166697.19;;;11.21;57.92
45255;BME280;30989;52.078;21.014;2024-03-08T11:12:25;166807.06;;;11.63;56.18
45255;BME280;30989;52.078;21.014;2024-03-08T11:14:52;166913.00;;;12.03;53.21
45255;BME280;30989;52.078;21.014;2024-03-08T11:19:58;167326.16;;;13.60;55.84
45255;BME280;30989;52.078;21.014;2024-03-08T11:22:28;167455.00;;;14.08;51.80
45255;BME280;30989;52.078;21.014;2024-03-08T11:25:08;167499.28;;;14.25;50.29
45255;BME280;30989;52.078;21.014;2024-03-08T11:27:37;167531.50;;;14.37;49.90
45255;BME280;30989;52.078;21.014;2024-03-08T11:30:07;167563.78;;;14.49;49.04
45255;BME280;30989;52.078;21.014;2024-03-08T11:32:46;167578.53;;;14.55;47.85
45255;BME280;30989;52.078;21.014;2024-03-08T11:35:21;167582.56;;;14.57;47.37
45255;BME280;30989;52.078;21.014;2024-03-08T11:37:48;167596.00;;;14.62;48.32
45255;BME280;30989;52.078;21.014;2024-03-08T11:40:15;167724.91;;;15.10;49.50
45255;BME280;30989;52.078;21.014;2024-03-08T11:42:48;167880.81;;;15.69;48.04
45255;BME280;30989;52.078;21.014;2024-03-08T11:45:17;167991.00;;;16.11;46.26
45255;BME280;30989;52.078;21.014;2024-03-08T11:47:43;167949.34;;;15.95;42.66
45255;BME280;30989;52.078;21.014;2024-03-08T11:50:12;167837.75;;;15.53;44.05
45255;BME280;30989;52.078;21.014;2024-03-08T11:52:38;167863.38;;;15.63;42.71
45255;BME280;30989;52.078;21.014;2024-03-08T11:55:04;167820.28;;;15.46;42.31
45255;BME280;30989;52.078;21.014;2024-03-08T11:57:30;167816.25;;;15.45;42.16
45255;BME280;30989;52.078;21.014;2024-03-08T11:59:58;167866.06;;;15.64;43.44
45255;BME280;30989;52.078;21.014;2024-03-08T12:02:24;167949.34;;;15.95;43.26
45255;BME280;30989;52.078;21.014;2024-03-08T12:04:59;168012.50;;;16.19;42.30
45255;BME280;30989;52.078;21.014;2024-03-08T12:07:25;168101.22;;;16.53;43.14
45255;BME280;30989;52.078;21.014;2024-03-08T12:10:18;168195.38;;;16.88;40.51
45255;BME280;30989;52.078;21.014;2024-03-08T12:12:47;168110.63;;;16.56;37.89
45255;BME280;30989;52.078;21.014;2024-03-08T12:15:19;167980.25;;;16.07;39.15
45255;BME280;30989;52.078;21.014;2024-03-08T12:17:47;167927.84;;;15.87;39.26
45255;BME280;30989;52.078;21.014;2024-03-08T12:20:24;167810.88;;;15.43;37.80
45255;BME280;30989;52.078;21.014;2024-03-08T12:22:52;167770.56;;;15.28;40.15
45255;BME280;30989;52.078;21.014;2024-03-08T12:25:18;167805.50;;;15.41;38.04
45255;BME280;30989;52.078;21.014;2024-03-08T12:27:45;167784.00;;;15.33;37.73
45255;BME280;30989;52.078;21.014;2024-03-08T12:30:24;167798.78;;;15.38;38.40
45255;BME280;30989;52.078;21.014;2024-03-08T12:33:00;167810.88;;;15.43;38.90
45255;BME280;30989;52.078;21.014;2024-03-08T12:35:27;167810.88;;;15.43;40.03
45255;BME280;30989;52.078;21.014;2024-03-08T12:37:55;167942.63;;;15.93;39.33
45255;BME280;30989;52.078;21.014;2024-03-08T12:40:30;168031.31;;;16.26;39.06